createdAt,value
2017-11-18T00:02:05.269Z,101178
2017-11-18T00:04:35.261Z,101172
2017-11-18T00:07:05.140Z,101165
2017-11-18T00:09:35.053Z,101164
2017-11-18T00:12:04.927Z,101164
2017-11-18T00:14:34.876Z,101161
2017-11-18T00:17:04.781Z,101159
2017-11-18T00:19:34.694Z,101147
2017-11-18T00:22:04.709Z,101146
2017-11-18T00:24:34.633Z,101149
2017-11-18T00:27:04.541Z,101144
2017-11-18T00:29:34.465Z,101142
2017-11-18T00:32:04.340Z,101134
2017-11-18T00:34:34.226Z,101133
2017-11-18T00:37:04.187Z,101128
2017-11-18T00:39:34.197Z,101128
2017-11-18T00:42:04.103Z,101129
2017-11-18T00:44:33.985Z,101124
2017-11-18T00:47:03.911Z,101134
2017-11-18T00:49:33.795Z,101128
2017-11-18T00:52:03.690Z,101135
2017-11-18T00:54:33.577Z,101131
2017-11-18T00:57:03.540Z,101128
2017-11-18T00:59:33.421Z,101123
2017-11-18T01:02:03.361Z,101065
2017-11-18T01:04:33.256Z,101134
2017-11-18T01:07:03.190Z,101127
2017-11-18T01:09:33.083Z,101122
2017-11-18T01:12:02.978Z,101101
2017-11-18T01:14:32.947Z,101104
2017-11-18T01:17:02.819Z,101106
2017-11-18T01:19:32.741Z,101090
2017-11-18T01:22:02.699Z,101100
2017-11-18T01:24:32.620Z,101087
2017-11-18T01:27:02.507Z,101080
2017-11-18T01:29:32.405Z,101073
2017-11-18T01:32:02.390Z,101069
2017-11-18T01:34:32.291Z,101062
2017-11-18T01:37:02.192Z,101061
2017-11-18T01:39:32.075Z,101048
2017-11-18T01:42:01.998Z,101047
2017-11-18T01:44:31.894Z,101052
2017-11-18T01:47:01.880Z,101038
2017-11-18T01:49:31.750Z,101029
2017-11-18T01:52:01.705Z,101029
2017-11-18T01:54:31.625Z,101031
2017-11-18T01:57:01.514Z,101028
2017-11-18T01:59:31.401Z,101026
2017-11-18T02:02:01.263Z,101018
2017-11-18T02:04:31.141Z,101018
2017-11-18T02:07:01.015Z,101005
2017-11-18T02:09:30.927Z,101007
2017-11-18T02:12:00.806Z,101011
2017-11-18T02:14:30.760Z,101009
2017-11-18T02:17:00.633Z,100999
2017-11-18T02:19:30.540Z,100992
2017-11-18T02:22:00.565Z,100990
2017-11-18T02:24:30.416Z,100983
2017-11-18T02:27:00.303Z,100963
2017-11-18T02:29:30.192Z,100962
2017-11-18T02:32:00.091Z,100961
2017-11-18T02:34:29.961Z,100955
2017-11-18T02:37:00.760Z,100956
2017-11-18T02:39:30.620Z,100942
2017-11-18T02:42:00.518Z,100933
2017-11-18T02:44:30.368Z,100944
2017-11-18T02:47:00.214Z,100938
2017-11-18T02:49:30.096Z,100931
2017-11-18T02:51:59.951Z,100927
2017-11-18T02:54:29.829Z,100913
2017-11-18T02:56:59.676Z,100907
2017-11-18T02:59:29.582Z,100903
2017-11-18T03:01:59.447Z,100889
2017-11-18T03:04:29.337Z,100887
2017-11-18T03:06:59.224Z,100889
2017-11-18T03:09:29.090Z,100877
2017-11-18T03:11:59.012Z,100868
2017-11-18T03:14:28.895Z,100862
2017-11-18T03:16:58.809Z,100859
2017-11-18T03:19:28.690Z,100854
2017-11-18T03:21:58.593Z,100848
2017-11-18T03:24:28.470Z,100858
2017-11-18T03:26:58.362Z,100849
2017-11-18T03:29:28.237Z,100845
2017-11-18T03:31:58.171Z,100837
2017-11-18T03:34:28.095Z,100828
2017-11-18T03:36:57.978Z,100828
2017-11-18T03:39:27.889Z,100819
2017-11-18T03:41:57.779Z,100807
2017-11-18T03:44:27.676Z,100814
2017-11-18T03:46:57.588Z,100803
2017-11-18T03:49:27.472Z,100800
2017-11-18T03:51:57.359Z,100795
2017-11-18T03:54:27.250Z,100797
2017-11-18T03:56:57.326Z,100789
2017-11-18T03:59:27.190Z,100782
2017-11-18T04:01:57.099Z,100775
2017-11-18T04:04:26.963Z,100772
2017-11-18T04:06:56.892Z,100767
2017-11-18T04:09:26.754Z,100764
2017-11-18T04:11:56.665Z,100767
2017-11-18T04:14:26.602Z,100769
2017-11-18T04:16:56.495Z,100749
2017-11-18T04:19:26.449Z,100752
2017-11-18T04:21:56.323Z,100739
2017-11-18T04:24:26.328Z,100739
2017-11-18T04:26:56.212Z,100739
2017-11-18T04:29:26.126Z,100735
2017-11-18T04:31:55.985Z,100732
2017-11-18T04:34:25.940Z,100733
2017-11-18T04:36:55.891Z,100724
2017-11-18T04:39:25.790Z,100726
2017-11-18T04:41:55.662Z,100722
2017-11-18T04:44:25.571Z,100716
2017-11-18T04:46:55.457Z,100705
2017-11-18T04:49:25.331Z,100702
2017-11-18T04:51:55.190Z,100700
2017-11-18T04:54:25.054Z,100690
2017-11-18T04:56:54.947Z,100687
2017-11-18T04:59:24.816Z,100683
2017-11-18T05:01:54.723Z,100676
2017-11-18T05:04:24.596Z,100674
2017-11-18T05:06:54.486Z,100674
2017-11-18T05:09:24.351Z,100671
2017-11-18T05:11:54.264Z,100661
2017-11-18T05:14:24.187Z,100666
2017-11-18T05:16:54.077Z,100655
2017-11-18T05:19:24.027Z,100657
2017-11-18T05:21:53.895Z,100656
2017-11-18T05:24:23.798Z,100650
2017-11-18T05:26:53.723Z,100645
2017-11-18T05:29:23.631Z,100643
2017-11-18T05:31:53.520Z,100641
2017-11-18T05:34:23.425Z,100633
2017-11-18T05:36:53.295Z,100627
2017-11-18T05:39:23.230Z,100621
2017-11-18T05:41:53.145Z,100615
2017-11-18T05:44:23.026Z,100621
2017-11-18T05:46:52.954Z,100621
2017-11-18T05:49:22.837Z,100611
2017-11-18T05:51:52.758Z,100611
2017-11-18T05:54:22.640Z,100606
2017-11-18T05:56:52.547Z,100591
2017-11-18T05:59:22.429Z,100598
2017-11-18T06:01:52.290Z,100594
2017-11-18T06:04:22.176Z,100587
2017-11-18T06:06:52.071Z,100583
2017-11-18T06:09:22.047Z,100576
2017-11-18T06:11:51.984Z,100589
2017-11-18T06:14:21.916Z,100576
2017-11-18T06:16:51.781Z,100571
2017-11-18T06:19:21.675Z,100566
2017-11-18T06:21:51.778Z,100568
2017-11-18T06:24:21.672Z,100564
2017-11-18T06:26:51.578Z,100553
2017-11-18T06:29:21.508Z,100548
2017-11-18T06:31:51.463Z,100539
2017-11-18T06:34:21.391Z,100543
2017-11-18T06:36:51.602Z,100539
2017-11-18T06:39:22.298Z,100541
2017-11-18T06:41:55.020Z,100525
2017-11-18T06:44:24.901Z,100533
2017-11-18T06:46:54.808Z,100529
2017-11-18T06:49:24.678Z,100527
2017-11-18T06:51:55.542Z,100511
2017-11-18T06:54:25.423Z,100512
2017-11-18T06:56:55.374Z,100514
2017-11-18T06:59:25.246Z,100508
2017-11-18T07:01:55.229Z,100513
2017-11-18T07:04:25.114Z,100515
2017-11-18T07:06:55.079Z,100503
2017-11-18T07:09:24.953Z,100503
2017-11-18T07:11:54.883Z,100496
2017-11-18T07:14:24.770Z,100493
2017-11-18T07:16:54.675Z,100484
2017-11-18T07:19:24.569Z,100480
2017-11-18T07:21:54.532Z,100478
2017-11-18T07:24:24.416Z,100466
2017-11-18T07:26:54.296Z,100470
2017-11-18T07:29:24.223Z,100472
2017-11-18T07:31:54.154Z,100461
2017-11-18T07:34:24.071Z,100472
2017-11-18T07:36:53.950Z,100459
2017-11-18T07:39:23.877Z,100455
2017-11-18T07:41:53.810Z,100448
2017-11-18T07:44:23.727Z,100455
2017-11-18T07:46:53.633Z,100442
2017-11-18T07:49:23.539Z,100436
2017-11-18T07:51:53.535Z,100440
2017-11-18T07:54:23.482Z,100440
2017-11-18T07:56:53.400Z,100435
2017-11-18T07:59:23.312Z,100431
2017-11-18T08:01:53.279Z,100425
2017-11-18T08:04:23.367Z,100416
2017-11-18T08:06:53.276Z,100412
2017-11-18T08:09:23.167Z,100402
2017-11-18T08:11:53.082Z,100408
2017-11-18T08:14:22.952Z,100410
2017-11-18T08:16:52.970Z,100413
2017-11-18T08:19:22.885Z,100413
2017-11-18T08:21:52.794Z,100402
2017-11-18T08:24:22.709Z,100398
2017-11-18T08:26:52.627Z,100389
2017-11-18T08:29:22.504Z,100379
2017-11-18T08:31:52.407Z,100380
2017-11-18T08:34:22.299Z,100360
2017-11-18T08:36:52.154Z,100359
2017-11-18T08:39:22.161Z,100358
2017-11-18T08:41:52.055Z,100352
2017-11-18T08:44:21.956Z,100351
2017-11-18T08:46:51.868Z,100343
2017-11-18T08:49:21.803Z,100345
2017-11-18T08:51:51.680Z,100314
2017-11-18T08:54:21.592Z,100326
2017-11-18T08:56:51.488Z,100323
2017-11-18T08:59:21.403Z,100313
2017-11-18T09:01:51.284Z,100316
2017-11-18T09:04:21.165Z,100305
2017-11-18T09:06:51.081Z,100305
2017-11-18T09:09:20.968Z,100289
2017-11-18T09:11:50.886Z,100292
2017-11-18T09:14:20.771Z,100294
2017-11-18T09:16:50.695Z,100281
2017-11-18T09:19:20.569Z,100277
2017-11-18T09:21:50.459Z,100288
2017-11-18T09:24:20.361Z,100283
2017-11-18T09:26:50.262Z,100281
2017-11-18T09:29:20.202Z,100280
2017-11-18T09:31:50.094Z,100276
2017-11-18T09:34:20.077Z,100281
2017-11-18T09:36:49.939Z,100258
2017-11-18T09:39:19.875Z,100265
2017-11-18T09:41:49.755Z,100255
2017-11-18T09:44:19.655Z,100260
2017-11-18T09:46:49.530Z,100238
2017-11-18T09:49:19.429Z,100244
2017-11-18T09:51:49.287Z,100229
2017-11-18T09:54:19.172Z,100235
2017-11-18T09:56:49.074Z,100221
2017-11-18T09:59:18.952Z,100208
2017-11-18T10:01:48.865Z,100205
2017-11-18T10:04:18.751Z,100186
2017-11-18T10:06:48.667Z,100195
2017-11-18T10:09:18.572Z,100182
2017-11-18T10:11:48.461Z,100168
2017-11-18T10:14:18.335Z,100159
2017-11-18T10:16:48.345Z,100161
2017-11-18T10:19:18.346Z,100164
2017-11-18T10:21:48.240Z,100156
2017-11-18T10:24:18.102Z,100142
2017-11-18T10:26:48.021Z,100126
2017-11-18T10:29:17.921Z,100128
2017-11-18T10:31:47.847Z,100123
2017-11-18T10:34:17.755Z,100121
2017-11-18T10:36:47.821Z,100108
2017-11-18T10:39:17.707Z,100106
2017-11-18T10:41:47.599Z,100116
2017-11-18T10:44:17.585Z,100103
2017-11-18T10:46:47.451Z,100123
2017-11-18T10:49:17.370Z,100108
2017-11-18T10:51:47.249Z,100101
2017-11-18T10:54:17.118Z,100115
2017-11-18T10:56:47.034Z,100108
2017-11-18T10:59:16.939Z,100103
2017-11-18T11:01:46.947Z,100098
2017-11-18T11:04:16.798Z,100098
2017-11-18T11:06:46.730Z,100104
2017-11-18T11:09:16.636Z,100111
2017-11-18T11:11:46.731Z,100124
2017-11-18T11:14:16.635Z,100136
2017-11-18T11:16:46.520Z,100129
2017-11-18T11:19:16.398Z,100153
2017-11-18T11:21:46.284Z,100164
2017-11-18T11:24:16.206Z,100162
2017-11-18T11:26:46.109Z,100162
2017-11-18T11:29:16.011Z,100170
2017-11-18T11:31:45.930Z,100200
2017-11-18T11:34:16.592Z,100189
2017-11-18T11:36:46.549Z,100195
2017-11-18T11:39:16.456Z,100203
2017-11-18T11:41:46.340Z,100214
2017-11-18T11:44:16.348Z,100199
2017-11-18T11:46:46.254Z,100207
2017-11-18T11:49:16.137Z,100210
2017-11-18T11:51:46.051Z,100227
2017-11-18T11:54:15.949Z,100217
2017-11-18T11:56:45.819Z,100221
2017-11-18T11:59:15.733Z,100218
2017-11-18T12:01:45.616Z,100221
2017-11-18T12:04:15.548Z,100218
2017-11-18T12:06:45.443Z,100220
2017-11-18T12:09:15.322Z,100208
2017-11-18T12:11:45.200Z,100207
2017-11-18T12:14:15.068Z,100209
2017-11-18T12:16:45.073Z,100207
2017-11-18T12:19:14.952Z,100203
2017-11-18T12:21:44.836Z,100215
2017-11-18T12:24:14.760Z,100201
2017-11-18T12:26:44.801Z,100198
2017-11-18T12:29:14.653Z,100178
2017-11-18T12:31:44.575Z,100169
2017-11-18T12:34:18.686Z,100162
2017-11-18T12:36:48.630Z,100159
2017-11-18T12:39:18.663Z,100147
2017-11-18T12:41:48.623Z,100121
2017-11-18T12:44:18.555Z,100102
2017-11-18T12:46:48.565Z,100122
2017-11-18T12:49:19.366Z,100101
2017-11-18T13:01:04.189Z,100125
2017-11-18T13:03:34.068Z,100122
2017-11-18T13:06:04.014Z,100112
2017-11-18T13:08:33.897Z,100105
2017-11-18T13:11:03.807Z,100102
2017-11-18T13:13:33.711Z,100108
2017-11-18T13:16:03.899Z,100107
2017-11-18T13:18:33.852Z,100099
2017-11-18T13:21:03.911Z,100108
2017-11-18T13:23:33.815Z,100113
2017-11-18T13:26:03.856Z,100098
2017-11-18T13:28:33.750Z,100110
2017-11-18T13:31:03.675Z,100113
2017-11-18T13:33:33.783Z,100108
2017-11-18T13:36:03.784Z,100107
2017-11-18T13:38:33.712Z,100119
2017-11-18T13:41:03.616Z,100115
2017-11-18T13:43:33.537Z,100127
2017-11-18T13:46:03.468Z,100134
2017-11-18T13:48:33.373Z,100142
2017-11-18T13:51:03.329Z,100140
2017-11-18T13:53:33.264Z,100137
2017-11-18T13:56:03.591Z,100139
2017-11-18T13:58:33.498Z,100140
2017-11-18T14:01:03.479Z,100138
2017-11-18T14:03:33.394Z,100140
2017-11-18T14:06:03.453Z,100148
2017-11-18T14:08:33.419Z,100145
2017-11-18T14:11:03.305Z,100139
2017-11-18T14:13:33.205Z,100147
2017-11-18T14:16:03.171Z,100149
2017-11-18T14:18:33.110Z,100148
2017-11-18T14:21:02.998Z,100142
2017-11-18T14:23:32.920Z,100151
2017-11-18T14:26:02.783Z,100147
2017-11-18T14:28:32.721Z,100153
2017-11-18T14:31:02.635Z,100154
2017-11-18T14:33:32.543Z,100147
2017-11-18T14:36:02.453Z,100155
2017-11-18T14:38:32.345Z,100163
2017-11-18T14:41:02.267Z,100166
2017-11-18T14:43:32.147Z,100165
2017-11-18T14:46:02.058Z,100158
2017-11-18T14:48:31.942Z,100145
2017-11-18T14:51:01.858Z,100161
2017-11-18T14:53:31.740Z,100153
2017-11-18T14:56:01.642Z,100157
2017-11-18T14:58:31.542Z,100150
2017-11-18T15:01:01.570Z,100150
2017-11-18T15:03:31.587Z,100147
2017-11-18T15:06:01.452Z,100151
2017-11-18T15:08:31.386Z,100150
2017-11-18T15:11:01.336Z,100145
2017-11-18T15:13:31.242Z,100158
2017-11-18T15:16:05.724Z,100149
2017-11-18T15:18:41.322Z,100143
2017-11-18T15:24:21.847Z,100142
2017-11-18T15:26:57.436Z,100147
2017-11-18T15:29:43.083Z,100140
2017-11-18T15:32:24.734Z,100130
2017-11-18T15:34:57.261Z,100130
2017-11-18T15:37:32.631Z,100127
2017-11-18T15:40:02.517Z,100130
2017-11-18T15:42:32.367Z,100129
2017-11-18T15:45:02.390Z,100129
2017-11-18T15:47:36.719Z,100136
2017-11-18T15:50:12.304Z,100131
2017-11-18T15:55:57.032Z,100126
2017-11-18T15:58:36.831Z,100127
2017-11-18T16:01:12.301Z,100122
2017-11-18T16:06:49.643Z,100125
2017-11-18T16:09:19.672Z,100121
2017-11-18T16:11:49.547Z,100120
2017-11-18T16:14:19.442Z,100126
2017-11-18T16:16:49.346Z,100137
2017-11-18T16:19:19.268Z,100138
2017-11-18T16:21:49.155Z,100150
2017-11-18T16:24:19.129Z,100146
2017-11-18T16:26:48.975Z,100155
2017-11-18T16:29:18.889Z,100142
2017-11-18T16:31:48.917Z,100142
2017-11-18T16:34:18.836Z,100148
2017-11-18T16:36:48.741Z,100147
2017-11-18T16:39:18.687Z,100143
2017-11-18T16:41:48.576Z,100145
2017-11-18T16:44:18.460Z,100142
2017-11-18T16:46:48.907Z,100144
2017-11-18T16:49:18.829Z,100145
2017-11-18T16:51:48.727Z,100146
2017-11-18T16:54:18.609Z,100150
2017-11-18T16:56:48.497Z,100151
2017-11-18T16:59:18.417Z,100150
2017-11-18T17:01:48.820Z,100155
2017-11-18T17:04:18.747Z,100159
2017-11-18T17:06:48.665Z,100157
2017-11-18T17:09:18.572Z,100159
2017-11-18T17:11:48.485Z,100163
2017-11-18T17:14:18.345Z,100165
2017-11-18T17:16:48.276Z,100162
2017-11-18T17:19:18.201Z,100161
2017-11-18T17:21:48.166Z,100163
2017-11-18T17:24:18.036Z,100164
2017-11-18T17:26:47.975Z,100157
2017-11-18T17:29:17.867Z,100152
2017-11-18T17:31:47.775Z,100154
2017-11-18T17:34:17.696Z,100149
2017-11-18T17:36:47.604Z,100147
2017-11-18T17:39:17.530Z,100142
2017-11-18T17:41:47.439Z,100147
2017-11-18T17:44:17.305Z,100147
2017-11-18T17:46:47.177Z,100143
2017-11-18T17:49:17.171Z,100141
2017-11-18T17:51:47.084Z,100142
2017-11-18T17:54:16.994Z,100134
2017-11-18T17:56:46.919Z,100070
2017-11-18T17:59:16.842Z,100128
2017-11-18T18:01:46.735Z,100122
2017-11-18T18:04:17.469Z,100126
2017-11-18T18:06:47.391Z,100125
2017-11-18T18:09:17.346Z,100134
2017-11-18T18:11:47.204Z,100135
2017-11-18T18:14:17.131Z,100138
2017-11-18T18:16:47.151Z,100124
2017-11-18T18:19:17.084Z,100137
2017-11-18T18:21:47.004Z,100128
2017-11-18T18:24:16.978Z,100129
2017-11-18T18:26:46.893Z,100132
2017-11-18T18:29:16.840Z,100137
2017-11-18T18:31:46.783Z,100137
2017-11-18T18:34:16.707Z,100126
2017-11-18T18:36:46.600Z,100131
2017-11-18T18:39:16.553Z,100115
2017-11-18T18:41:46.441Z,100109
2017-11-18T18:44:16.390Z,100114
2017-11-18T18:46:46.275Z,100122
2017-11-18T18:49:16.142Z,100121
2017-11-18T18:51:46.061Z,100119
2017-11-18T18:54:15.971Z,100123
2017-11-18T18:56:45.888Z,100126
2017-11-18T18:59:15.802Z,100133
2017-11-18T19:01:45.758Z,100132
2017-11-18T19:04:16.512Z,100128
2017-11-18T19:06:46.439Z,100124
2017-11-18T19:09:16.317Z,100120
2017-11-18T19:11:46.264Z,100133
2017-11-18T19:14:16.115Z,100138
2017-11-18T19:16:46.155Z,100059
2017-11-18T19:19:16.068Z,100154
2017-11-18T19:21:45.995Z,100148
2017-11-18T19:24:15.925Z,100147
2017-11-18T19:26:45.862Z,100137
2017-11-18T19:29:15.816Z,100131
2017-11-18T19:31:45.720Z,100135
2017-11-18T19:34:15.825Z,100139
2017-11-18T19:36:45.753Z,100138
2017-11-18T19:39:15.642Z,100138
2017-11-18T19:41:45.544Z,100142
2017-11-18T19:44:15.446Z,100157
2017-11-18T19:46:45.333Z,100147
2017-11-18T19:49:15.253Z,100148
2017-11-18T19:51:45.141Z,100141
2017-11-18T19:54:15.026Z,100138
2017-11-18T19:56:44.965Z,100122
2017-11-18T19:59:14.878Z,100133
2017-11-18T20:01:44.767Z,100133
2017-11-18T20:04:14.699Z,100137
2017-11-18T20:06:44.619Z,100128
2017-11-18T20:09:14.528Z,100119
2017-11-18T20:11:44.441Z,100131
2017-11-18T20:14:14.333Z,100142
2017-11-18T20:16:44.279Z,100129
2017-11-18T20:19:14.152Z,100106
2017-11-18T20:21:44.151Z,100096
2017-11-18T20:24:14.064Z,100098
2017-11-18T20:26:43.982Z,100096
2017-11-18T20:29:13.900Z,100102
2017-11-18T20:31:43.848Z,100108
2017-11-18T20:34:13.734Z,100111
2017-11-18T20:36:43.697Z,100118
2017-11-18T20:39:13.581Z,100116
2017-11-18T20:41:43.463Z,100109
2017-11-18T20:44:13.376Z,100112
2017-11-18T20:46:43.292Z,100116
2017-11-18T20:49:13.169Z,100112
2017-11-18T20:51:43.102Z,100107
2017-11-18T20:54:13.064Z,100113
2017-11-18T20:56:42.959Z,100109
2017-11-18T20:59:12.870Z,100105
2017-11-18T21:01:42.817Z,100109
2017-11-18T21:04:12.907Z,100114
2017-11-18T21:06:42.918Z,100122
2017-11-18T21:09:12.839Z,100126
2017-11-18T21:11:42.736Z,100119
2017-11-18T21:14:12.724Z,100118
2017-11-18T21:16:42.714Z,100125
2017-11-18T21:19:12.689Z,100111
2017-11-18T21:21:42.611Z,100118
2017-11-18T21:24:12.584Z,100122
2017-11-18T21:26:42.490Z,100135
2017-11-18T21:29:12.398Z,100130
2017-11-18T21:31:42.312Z,100133
2017-11-18T21:34:12.486Z,100123
2017-11-18T21:36:42.421Z,100129
2017-11-18T21:39:12.311Z,100111
2017-11-18T21:41:42.279Z,100105
2017-11-18T21:44:12.284Z,100101
2017-11-18T21:46:42.206Z,100106
2017-11-18T21:49:12.215Z,100109
2017-11-18T21:51:42.135Z,100117
2017-11-18T21:54:12.049Z,100113
2017-11-18T21:56:41.996Z,100117
2017-11-18T21:59:11.900Z,100118
2017-11-18T22:01:41.809Z,100107
2017-11-18T22:04:11.755Z,100109
2017-11-18T22:06:41.658Z,100100
2017-11-18T22:09:11.548Z,100082
2017-11-18T22:11:41.498Z,100092
2017-11-18T22:14:11.384Z,100114
2017-11-18T22:16:41.263Z,100100
2017-11-18T22:19:11.160Z,100094
2017-11-18T22:21:41.054Z,100077
2017-11-18T22:24:10.985Z,100066
2017-11-18T22:26:40.856Z,100066
2017-11-18T22:29:10.770Z,100064
2017-11-18T22:31:40.679Z,100060
2017-11-18T22:34:10.606Z,100060
2017-11-18T22:36:40.516Z,100064
2017-11-18T22:39:10.420Z,100064
2017-11-18T22:41:40.359Z,100055
2017-11-18T22:44:10.242Z,100043
2017-11-18T22:46:40.146Z,100046
2017-11-18T22:49:10.023Z,100053
2017-11-18T22:51:39.921Z,100046
2017-11-18T22:54:09.823Z,100042
2017-11-18T22:56:39.832Z,100033
2017-11-18T22:59:09.745Z,100035
2017-11-18T23:01:39.659Z,100015
2017-11-18T23:04:09.556Z,100021
2017-11-18T23:06:39.469Z,100016
2017-11-18T23:09:09.395Z,100003
2017-11-18T23:11:39.275Z,99995
2017-11-18T23:14:09.372Z,99995
2017-11-18T23:16:39.257Z,99989
2017-11-18T23:19:09.176Z,99981
2017-11-18T23:21:39.031Z,99971
2017-11-18T23:24:09.094Z,99971
2017-11-18T23:26:38.985Z,99972
2017-11-18T23:29:08.923Z,99969
2017-11-18T23:31:38.853Z,99982
2017-11-18T23:34:08.791Z,99975
2017-11-18T23:36:38.681Z,99970
2017-11-18T23:39:08.668Z,99968
2017-11-18T23:41:38.547Z,99965
2017-11-18T23:44:08.453Z,99972
2017-11-18T23:46:38.329Z,99960
2017-11-18T23:49:08.265Z,99953
2017-11-18T23:51:38.159Z,99966
2017-11-18T23:54:08.029Z,99952
2017-11-18T23:56:37.921Z,99944
2017-11-18T23:59:07.822Z,99948
